Página principal
METAR-TAF:

METAR-TAF

Aeroportos :

Urgench, Uzbequistão

latitude: 41-35N, longitude: 060-38-42E, altura: 98 m

Observação actual do tempo

O boletim foi feito há 48 minutos, às 12:00 UTC
Vento 4 kt de norte
Temperatura 42°C
Humidade 16%
Pressão 1001 hPa
Visibilidade 10 km ou mais
sem nuvens abaixo de 1500 metros e sem cumulonimbus

METAR: UTNU 201200Z 01004KT CAVOK 42/11 Q1001 R31/CLRD70 NOSIG

Hora: 17:48 (12:48 UTC)

Previsão

O boletim foi feito há 1 hora e 48 minutos, às 11:00 UTC
Previsão válida de 20 às 12 UTC a 21 às 12 UTC
Vento 10 kt de es-sudeste com rajadas de 20 kt
Visibilidade: 7000 m
Temporariamente
de 20 às 12 UTC a 20 às 18 UTC
Vento 4 kt com direcção variável

TAF: UTNU 201100Z 2012/2112 12010G20KT 7000 NSC TX43/2110Z TN25/2101Z TEMPO 2012/2018 VRB04KT

Observações e previsões do tempo de mais de 4000 aeroportos (mensagens METAR e TAF).

As estações disponíveis são os pontos amarelos e vermelhos sobre o mapa.

Mova o rato sobre o mapa para ver o nome da estação.

Depois clique no ponto para visualizar as observações e previsões meteorológicas.

Para alterar o mapa : clique nos botões verdes com uma cruz preta para aumentar o zoom; no botão verde com uma pitada de zoom; ou nas setas verdes para mapas adjacentes.


METAR-TAF: